Jrs Merkur — V2FD8 — position and weather

sailwx.info

Track history (hours):
 
Tides and Currents Weather Stations Pressure Air Temp Water Temp Dewpoint Dewpoint Depression Visibility Wind Speed Wind Dir Waves Ship Positions

Jrs Merkur

Last reported at 2015-Apr-01 17:22 UTC. Time now 2015-Apr-02 00:12 UTC.
Position N 50°25' W 000°35'.

Length 107 m; draft 8.5 m.

Type: Cargo ship. MMSI: 305644000.

Date/timePositionNaut miles runAvg speedWind from/ knotsBaromVisibWave heightAir tempDewpointWater temp
2015-Apr-01 17:22N 50°25' W 000°35'27 9.0
2015-Apr-01 14:19N 50°33' E 000°07'8 9.8
2015-Apr-01 13:33N 50°35' E 000°18'10 9.6
2015-Apr-01 12:33N 50°37' E 000°33'9 9.0
2015-Apr-01 11:33N 50°43' E 000°44'9 8.6
2015-Apr-01 10:33N 50°48' E 000°55'8 8.5
2015-Apr-01 09:33N 50°53' E 001°06'9 8.6
2015-Apr-01 08:33N 50°59' E 001°16'8 8.5
2015-Apr-01 07:33N 51°06' E 001°22'1010.2
2015-Apr-01 06:33N 51°09' E 001°38'1211.5
2015-Apr-01 05:33N 51°18' E 001°50'9 9.3
2015-Apr-01 04:33N 51°25' E 002°00'8 7.9
2015-Apr-01 03:30N 51°21' E 002°12'8 7.5
2015-Apr-01 02:30N 51°22' E 002°25'6 6.8
2015-Apr-01 01:33N 51°23' E 002°35'7 6.8
2015-Apr-01 00:33N 51°22' E 002°46'6 6.2
2015-Mar-31 23:33N 51°23' E 002°55'6 5.4
2015-Mar-31 22:31N 51°24' E 003°04'6 5.7
2015-Mar-31 21:29N 51°25' E 003°14'6 6.6
2015-Mar-31 20:33N 51°25' E 003°24'8 7.7
2015-Mar-31 19:33N 51°26' E 003°36'6 6.3
2015-Mar-31 18:33N 51°22' E 003°44'4 4.2
2015-Mar-31 17:33N 51°20' E 003°49'2 1.5
2015-Mar-31 16:34N 51°18' E 003°50'6 5.8
2015-Mar-31 15:33N 51°12' E 003°48'2 1.9
2015-Mar-31 14:33N 51°11' E 003°48'0 0.0
2015-Mar-31 13:33N 51°11' E 003°48'0 0.0
2015-Mar-31 12:27N 51°11' E 003°48'0 0.0
2015-Mar-31 11:29N 51°11' E 003°48'0 0.0
2015-Mar-31 10:32N 51°11' E 003°48'0 0.0
2015-Mar-31 09:32N 51°11' E 003°48'0 0.0
2015-Mar-31 08:32N 51°11' E 003°48'0 0.0
2015-Mar-31 07:32N 51°11' E 003°48'0 0.0
2015-Mar-31 06:29N 51°11' E 003°48'0 0.0
2015-Mar-31 05:30N 51°11' E 003°48'0 0.0
2015-Mar-31 04:29N 51°11' E 003°48'0 0.0
2015-Mar-31 03:30N 51°11' E 003°48'0 0.0
2015-Mar-31 02:29N 51°11' E 003°48'0 0.0
2015-Mar-31 01:30N 51°11' E 003°48'0 0.0
2015-Mar-31 00:32N 51°11' E 003°48'0 0.0
2015-Mar-30 23:29N 51°11' E 003°48'0 0.0
2015-Mar-30 22:29N 51°11' E 003°48'0 0.0
2015-Mar-30 21:30N 51°11' E 003°48'0 0.0
2015-Mar-30 20:32N 51°11' E 003°48'0 0.0
2015-Mar-30 19:29N 51°11' E 003°48'0 0.0
2015-Mar-30 18:32N 51°11' E 003°48'0 0.0
2015-Mar-30 17:32N 51°11' E 003°48'0 0.0
2015-Mar-30 16:29N 51°11' E 003°48'0 0.0
2015-Mar-30 15:29N 51°11' E 003°48'0 0.0
2015-Mar-30 14:32N 51°11' E 003°48'0 0.0
2015-Mar-30 13:29N 51°11' E 003°48'0 0.0
2015-Mar-30 12:32N 51°11' E 003°48'0 0.0
2015-Mar-30 11:32N 51°11' E 003°48'0 0.0
2015-Mar-30 10:32N 51°11' E 003°48'0 0.0
2015-Mar-30 09:32N 51°11' E 003°48'0 0.0
2015-Mar-30 08:32N 51°11' E 003°48'0 0.0
2015-Mar-30 07:32N 51°11' E 003°48'0 0.0
2015-Mar-30 06:29N 51°11' E 003°48'0 0.0
2015-Mar-30 05:32N 51°11' E 003°48'0 0.0
2015-Mar-30 04:29N 51°11' E 003°48'0 0.0
2015-Mar-30 03:32N 51°11' E 003°48'0 0.0
2015-Mar-30 02:29N 51°11' E 003°48'0 0.0
2015-Mar-30 01:32N 51°11' E 003°48'0 0.0
2015-Mar-30 00:32N 51°11' E 003°48'0 0.0
2015-Mar-29 23:29N 51°11' E 003°48'0 0.0
2015-Mar-29 22:29N 51°11' E 003°48'0 0.0
2015-Mar-29 21:32N 51°11' E 003°48'0 0.0
2015-Mar-29 20:32N 51°11' E 003°48'0 0.0
2015-Mar-29 19:32N 51°11' E 003°48'0 0.0
2015-Mar-29 18:32N 51°11' E 003°48'0 0.0
2015-Mar-29 17:32N 51°11' E 003°48'0 0.0
2015-Mar-29 16:32N 51°11' E 003°48'0 0.0
2015-Mar-29 15:32N 51°11' E 003°48'0 0.0
2015-Mar-29 14:32N 51°11' E 003°48'0 0.0
2015-Mar-29 13:29N 51°11' E 003°48'0 0.0
2015-Mar-29 12:32N 51°11' E 003°48'0 0.0
2015-Mar-29 11:29N 51°11' E 003°48'0 0.0
2015-Mar-29 10:29N 51°11' E 003°48'0 0.0
2015-Mar-29 09:32N 51°11' E 003°48'0 0.0
2015-Mar-29 08:32N 51°11' E 003°48'0 0.0
2015-Mar-29 07:32N 51°11' E 003°48'0 0.0
2015-Mar-29 06:32N 51°11' E 003°48'0 0.0
2015-Mar-29 05:32N 51°11' E 003°48'0 0.0
2015-Mar-29 04:32N 51°11' E 003°48'0 0.0
2015-Mar-29 03:32N 51°11' E 003°48'0 0.0
2015-Mar-29 02:32N 51°11' E 003°48'0 0.0
2015-Mar-29 01:32N 51°11' E 003°48'0 0.0
2015-Mar-29 00:32N 51°11' E 003°48'0 0.0
2015-Mar-28 23:32N 51°11' E 003°48'0 0.0
2015-Mar-28 22:32N 51°11' E 003°48'0 0.0
2015-Mar-28 21:29N 51°11' E 003°48'0 0.0
2015-Mar-28 20:32N 51°11' E 003°48'0 0.0
2015-Mar-28 19:26N 51°11' E 003°48'0 0.0
2015-Mar-28 18:32N 51°11' E 003°48'0 0.0
2015-Mar-28 17:32N 51°11' E 003°48'0 0.0
2015-Mar-28 16:29N 51°11' E 003°48'0 0.0
2015-Mar-28 15:33N 51°11' E 003°48'0 0.0
2015-Mar-28 14:32N 51°11' E 003°48'0 0.0
2015-Mar-28 13:32N 51°11' E 003°48'0 0.0
2015-Mar-28 12:32N 51°11' E 003°48'0 0.0
2015-Mar-28 11:32N 51°11' E 003°48'0 0.0
2015-Mar-28 10:32N 51°11' E 003°48'0 0.0
2015-Mar-28 09:32N 51°11' E 003°48'0 0.0
2015-Mar-28 08:33N 51°11' E 003°48'0 0.0
2015-Mar-28 07:29N 51°11' E 003°48'0 0.0
2015-Mar-28 06:32N 51°11' E 003°48'1 1.2
2015-Mar-28 05:32N 51°10' E 003°47'0 0.0
2015-Mar-28 04:29N 51°10' E 003°47'0 0.0
2015-Mar-28 03:32N 51°10' E 003°47'0 0.0
2015-Mar-28 02:32N 51°10' E 003°47'0 0.0
2015-Mar-28 01:32N 51°10' E 003°47'0 0.0
2015-Mar-28 00:26N 51°10' E 003°47'0 0.0
2015-Mar-27 23:26N 51°10' E 003°47'0 0.0
2015-Mar-27 22:32N 51°10' E 003°47'0 0.0
2015-Mar-27 21:32N 51°10' E 003°47'0 0.0
2015-Mar-27 20:32N 51°10' E 003°47'0 0.0
2015-Mar-27 19:32N 51°10' E 003°47'0 0.0
2015-Mar-27 18:29N 51°10' E 003°47'0 0.0
2015-Mar-27 17:32N 51°10' E 003°47'0 0.0
2015-Mar-27 16:32N 51°10' E 003°47'0 0.0
2015-Mar-27 15:32N 51°10' E 003°47'0 0.0
2015-Mar-27 14:31N 51°10' E 003°47'0 0.0
2015-Mar-27 13:32N 51°10' E 003°47'0 0.0
2015-Mar-27 12:31N 51°10' E 003°47'0 0.0
2015-Mar-27 11:32N 51°10' E 003°47'0 0.0
2015-Mar-27 10:32N 51°10' E 003°47'0 0.0
2015-Mar-27 09:32N 51°10' E 003°47'0 0.0
2015-Mar-27 08:32N 51°10' E 003°47'0 0.0
2015-Mar-27 07:25N 51°10' E 003°47'0 0.0
2015-Mar-27 06:32N 51°10' E 003°47'0 0.0
2015-Mar-27 05:32N 51°10' E 003°47'0 0.0
2015-Mar-27 04:31N 51°10' E 003°47'0 0.0
2015-Mar-27 03:32N 51°10' E 003°47'0 0.0
2015-Mar-27 02:32N 51°10' E 003°47'0 0.0
2015-Mar-27 01:32N 51°10' E 003°47'0 0.0
2015-Mar-27 00:31N 51°10' E 003°47'0 0.0
2015-Mar-26 23:32N 51°10' E 003°47'0 0.0
2015-Mar-26 22:31N 51°10' E 003°47'0 0.0
2015-Mar-26 21:26N 51°10' E 003°47'0 0.0
2015-Mar-26 20:32N 51°10' E 003°47'0 0.0
2015-Mar-26 19:32N 51°10' E 003°47'0 0.0
2015-Mar-26 18:31N 51°10' E 003°47'0 0.0
2015-Mar-26 17:25N 51°10' E 003°47'0 0.0
2015-Mar-26 16:31N 51°10' E 003°47'0 0.0
2015-Mar-26 15:31N 51°10' E 003°47'0 0.0
2015-Mar-26 14:31N 51°10' E 003°47'0 0.0
2015-Mar-26 13:31N 51°10' E 003°47'0 0.0
2015-Mar-26 12:28N 51°10' E 003°47'1 1.3
2015-Mar-26 11:33N 51°11' E 003°48'8 7.6
2015-Mar-26 10:34N 51°18' E 003°50'2 2.1
2015-Mar-26 09:33N 51°20' E 003°49'7 7.0
2015-Mar-26 08:33N 51°25' E 003°40'3 3.2
2015-Mar-26 07:33N 51°25' E 003°35'0 0.1
2015-Mar-26 06:33N 51°25' E 003°35'0 0.1
2015-Mar-26 05:33N 51°25' E 003°36'0 0.0
2015-Mar-26 04:33N 51°25' E 003°36'1 1.0
2015-Mar-26 03:33N 51°25' E 003°34'1312.6
2015-Mar-26 02:33N 51°24' E 003°14'1110.9
2015-Mar-26 01:33N 51°22' E 002°57'10 9.7
2015-Mar-26 00:34N 51°21' E 002°41'9 9.1
2015-Mar-25 23:31N 51°21' E 002°26'8 8.7
2015-Mar-25 22:33N 51°17' E 002°15'9 9.4
2015-Mar-25 21:34N 51°12' E 002°03'10 9.5
2015-Mar-25 20:33N 51°06' E 001°51'9 8.9
2015-Mar-25 19:33N 51°03' E 002°04'1010.4
2015-Mar-25 18:33N 51°03' E 002°21'3 3.1
2015-Mar-25 17:31N 51°02' E 002°16'0 0.0
2015-Mar-25 16:28N 51°02' E 002°16'0 0.0
2015-Mar-25 15:28N 51°02' E 002°16'0 0.0
2015-Mar-25 14:32N 51°02' E 002°16'0 0.0
2015-Mar-25 13:31N 51°02' E 002°16'0 0.0
2015-Mar-25 12:28N 51°02' E 002°16'0 0.0
2015-Mar-25 11:25N 51°02' E 002°16'0 0.0
2015-Mar-25 10:31N 51°02' E 002°16'0 0.0
2015-Mar-25 09:25N 51°02' E 002°16'0 0.0
2015-Mar-25 08:31N 51°02' E 002°16'0 0.0
2015-Mar-25 07:31N 51°02' E 002°16'0 0.0
2015-Mar-25 06:28N 51°02' E 002°16'0 0.0
2015-Mar-25 05:28N 51°02' E 002°16'0 0.0
2015-Mar-25 04:31N 51°02' E 002°16'0 0.0
2015-Mar-25 03:31N 51°02' E 002°16'0 0.0
2015-Mar-25 02:31N 51°02' E 002°16'0 0.0
2015-Mar-25 01:28N 51°02' E 002°16'0 0.0
2015-Mar-25 00:28N 51°02' E 002°16'0 0.0
2015-Mar-24 23:25N 51°02' E 002°16'0 0.0
2015-Mar-24 22:28N 51°02' E 002°16'0 0.0
2015-Mar-24 21:31N 51°02' E 002°16'0 0.0
2015-Mar-24 20:31N 51°02' E 002°16'0 0.0
2015-Mar-24 19:31N 51°02' E 002°16'0 0.0
2015-Mar-24 18:31N 51°02' E 002°16'0 0.0
2015-Mar-24 17:31N 51°02' E 002°16'0 0.0
2015-Mar-24 16:31N 51°02' E 002°16'0 0.0
2015-Mar-24 15:32N 51°02' E 002°16'0 0.0
2015-Mar-24 14:31N 51°02' E 002°16'0 0.1
2015-Mar-24 13:33N 51°02' E 002°16'3 2.9
2015-Mar-24 12:30N 51°03' E 002°21'8 7.9
2015-Mar-24 11:27N 51°03' E 002°07'910.0
2015-Mar-24 10:33N 51°02' E 001°53'9 8.3
2015-Mar-24 09:30N 50°60' E 001°40'8 7.8
2015-Mar-24 08:32N 50°56' E 001°30'  
Track history (hours):
 
Tides and Currents Weather Stations Pressure Air Temp Water Temp Dewpoint Dewpoint Depression Visibility Wind Speed Wind Dir Waves Ship Positions

Jrs Merkur

Last reported at 2015-Apr-01 17:22 UTC. Time now 2015-Apr-02 00:12 UTC.
Position N 50°25' W 000°35'.

Length 107 m; draft 8.5 m.

Type: Cargo ship. MMSI: 305644000.

Date/timePositionNaut miles runAvg speedWind from/ knotsBaromVisibWave heightAir tempDewpointWater temp
2015-Apr-01 17:22N 50°25' W 000°35'27 9.0
2015-Apr-01 14:19N 50°33' E 000°07'8 9.8
2015-Apr-01 13:33N 50°35' E 000°18'10 9.6
2015-Apr-01 12:33N 50°37' E 000°33'9 9.0
2015-Apr-01 11:33N 50°43' E 000°44'9 8.6
2015-Apr-01 10:33N 50°48' E 000°55'8 8.5
2015-Apr-01 09:33N 50°53' E 001°06'9 8.6
2015-Apr-01 08:33N 50°59' E 001°16'8 8.5
2015-Apr-01 07:33N 51°06' E 001°22'1010.2
2015-Apr-01 06:33N 51°09' E 001°38'1211.5
2015-Apr-01 05:33N 51°18' E 001°50'9 9.3
2015-Apr-01 04:33N 51°25' E 002°00'8 7.9
2015-Apr-01 03:30N 51°21' E 002°12'8 7.5
2015-Apr-01 02:30N 51°22' E 002°25'6 6.8
2015-Apr-01 01:33N 51°23' E 002°35'7 6.8
2015-Apr-01 00:33N 51°22' E 002°46'6 6.2
2015-Mar-31 23:33N 51°23' E 002°55'6 5.4
2015-Mar-31 22:31N 51°24' E 003°04'6 5.7
2015-Mar-31 21:29N 51°25' E 003°14'6 6.6
2015-Mar-31 20:33N 51°25' E 003°24'8 7.7
2015-Mar-31 19:33N 51°26' E 003°36'6 6.3
2015-Mar-31 18:33N 51°22' E 003°44'4 4.2
2015-Mar-31 17:33N 51°20' E 003°49'2 1.5
2015-Mar-31 16:34N 51°18' E 003°50'6 5.8
2015-Mar-31 15:33N 51°12' E 003°48'2 1.9
2015-Mar-31 14:33N 51°11' E 003°48'0 0.0
2015-Mar-31 13:33N 51°11' E 003°48'0 0.0
2015-Mar-31 12:27N 51°11' E 003°48'0 0.0
2015-Mar-31 11:29N 51°11' E 003°48'0 0.0
2015-Mar-31 10:32N 51°11' E 003°48'0 0.0
2015-Mar-31 09:32N 51°11' E 003°48'0 0.0
2015-Mar-31 08:32N 51°11' E 003°48'0 0.0
2015-Mar-31 07:32N 51°11' E 003°48'0 0.0
2015-Mar-31 06:29N 51°11' E 003°48'0 0.0
2015-Mar-31 05:30N 51°11' E 003°48'0 0.0
2015-Mar-31 04:29N 51°11' E 003°48'0 0.0
2015-Mar-31 03:30N 51°11' E 003°48'0 0.0
2015-Mar-31 02:29N 51°11' E 003°48'0 0.0
2015-Mar-31 01:30N 51°11' E 003°48'0 0.0
2015-Mar-31 00:32N 51°11' E 003°48'0 0.0
2015-Mar-30 23:29N 51°11' E 003°48'0 0.0
2015-Mar-30 22:29N 51°11' E 003°48'0 0.0
2015-Mar-30 21:30N 51°11' E 003°48'0 0.0
2015-Mar-30 20:32N 51°11' E 003°48'0 0.0
2015-Mar-30 19:29N 51°11' E 003°48'0 0.0
2015-Mar-30 18:32N 51°11' E 003°48'0 0.0
2015-Mar-30 17:32N 51°11' E 003°48'0 0.0
2015-Mar-30 16:29N 51°11' E 003°48'0 0.0
2015-Mar-30 15:29N 51°11' E 003°48'0 0.0
2015-Mar-30 14:32N 51°11' E 003°48'0 0.0
2015-Mar-30 13:29N 51°11' E 003°48'0 0.0
2015-Mar-30 12:32N 51°11' E 003°48'0 0.0
2015-Mar-30 11:32N 51°11' E 003°48'0 0.0
2015-Mar-30 10:32N 51°11' E 003°48'0 0.0
2015-Mar-30 09:32N 51°11' E 003°48'0 0.0
2015-Mar-30 08:32N 51°11' E 003°48'0 0.0
2015-Mar-30 07:32N 51°11' E 003°48'0 0.0
2015-Mar-30 06:29N 51°11' E 003°48'0 0.0
2015-Mar-30 05:32N 51°11' E 003°48'0 0.0
2015-Mar-30 04:29N 51°11' E 003°48'0 0.0
2015-Mar-30 03:32N 51°11' E 003°48'0 0.0
2015-Mar-30 02:29N 51°11' E 003°48'0 0.0
2015-Mar-30 01:32N 51°11' E 003°48'0 0.0
2015-Mar-30 00:32N 51°11' E 003°48'0 0.0
2015-Mar-29 23:29N 51°11' E 003°48'0 0.0
2015-Mar-29 22:29N 51°11' E 003°48'0 0.0
2015-Mar-29 21:32N 51°11' E 003°48'0 0.0
2015-Mar-29 20:32N 51°11' E 003°48'0 0.0
2015-Mar-29 19:32N 51°11' E 003°48'0 0.0
2015-Mar-29 18:32N 51°11' E 003°48'0 0.0
2015-Mar-29 17:32N 51°11' E 003°48'0 0.0
2015-Mar-29 16:32N 51°11' E 003°48'0 0.0
2015-Mar-29 15:32N 51°11' E 003°48'0 0.0
2015-Mar-29 14:32N 51°11' E 003°48'0 0.0
2015-Mar-29 13:29N 51°11' E 003°48'0 0.0
2015-Mar-29 12:32N 51°11' E 003°48'0 0.0
2015-Mar-29 11:29N 51°11' E 003°48'0 0.0
2015-Mar-29 10:29N 51°11' E 003°48'0 0.0
2015-Mar-29 09:32N 51°11' E 003°48'0 0.0
2015-Mar-29 08:32N 51°11' E 003°48'0 0.0
2015-Mar-29 07:32N 51°11' E 003°48'0 0.0
2015-Mar-29 06:32N 51°11' E 003°48'0 0.0
2015-Mar-29 05:32N 51°11' E 003°48'0 0.0
2015-Mar-29 04:32N 51°11' E 003°48'0 0.0
2015-Mar-29 03:32N 51°11' E 003°48'0 0.0
2015-Mar-29 02:32N 51°11' E 003°48'0 0.0
2015-Mar-29 01:32N 51°11' E 003°48'0 0.0
2015-Mar-29 00:32N 51°11' E 003°48'0 0.0
2015-Mar-28 23:32N 51°11' E 003°48'0 0.0
2015-Mar-28 22:32N 51°11' E 003°48'0 0.0
2015-Mar-28 21:29N 51°11' E 003°48'0 0.0
2015-Mar-28 20:32N 51°11' E 003°48'0 0.0
2015-Mar-28 19:26N 51°11' E 003°48'0 0.0
2015-Mar-28 18:32N 51°11' E 003°48'0 0.0
2015-Mar-28 17:32N 51°11' E 003°48'0 0.0
2015-Mar-28 16:29N 51°11' E 003°48'0 0.0
2015-Mar-28 15:33N 51°11' E 003°48'0 0.0
2015-Mar-28 14:32N 51°11' E 003°48'0 0.0
2015-Mar-28 13:32N 51°11' E 003°48'0 0.0
2015-Mar-28 12:32N 51°11' E 003°48'0 0.0
2015-Mar-28 11:32N 51°11' E 003°48'0 0.0
2015-Mar-28 10:32N 51°11' E 003°48'0 0.0
2015-Mar-28 09:32N 51°11' E 003°48'0 0.0
2015-Mar-28 08:33N 51°11' E 003°48'0 0.0
2015-Mar-28 07:29N 51°11' E 003°48'0 0.0
2015-Mar-28 06:32N 51°11' E 003°48'1 1.2
2015-Mar-28 05:32N 51°10' E 003°47'0 0.0
2015-Mar-28 04:29N 51°10' E 003°47'0 0.0
2015-Mar-28 03:32N 51°10' E 003°47'0 0.0
2015-Mar-28 02:32N 51°10' E 003°47'0 0.0
2015-Mar-28 01:32N 51°10' E 003°47'0 0.0
2015-Mar-28 00:26N 51°10' E 003°47'0 0.0
2015-Mar-27 23:26N 51°10' E 003°47'0 0.0
2015-Mar-27 22:32N 51°10' E 003°47'0 0.0
2015-Mar-27 21:32N 51°10' E 003°47'0 0.0
2015-Mar-27 20:32N 51°10' E 003°47'0 0.0
2015-Mar-27 19:32N 51°10' E 003°47'0 0.0
2015-Mar-27 18:29N 51°10' E 003°47'0 0.0
2015-Mar-27 17:32N 51°10' E 003°47'0 0.0
2015-Mar-27 16:32N 51°10' E 003°47'0 0.0
2015-Mar-27 15:32N 51°10' E 003°47'0 0.0
2015-Mar-27 14:31N 51°10' E 003°47'0 0.0
2015-Mar-27 13:32N 51°10' E 003°47'0 0.0
2015-Mar-27 12:31N 51°10' E 003°47'0 0.0
2015-Mar-27 11:32N 51°10' E 003°47'0 0.0
2015-Mar-27 10:32N 51°10' E 003°47'0 0.0
2015-Mar-27 09:32N 51°10' E 003°47'0 0.0
2015-Mar-27 08:32N 51°10' E 003°47'0 0.0
2015-Mar-27 07:25N 51°10' E 003°47'0 0.0
2015-Mar-27 06:32N 51°10' E 003°47'0 0.0
2015-Mar-27 05:32N 51°10' E 003°47'0 0.0
2015-Mar-27 04:31N 51°10' E 003°47'0 0.0
2015-Mar-27 03:32N 51°10' E 003°47'0 0.0
2015-Mar-27 02:32N 51°10' E 003°47'0 0.0
2015-Mar-27 01:32N 51°10' E 003°47'0 0.0
2015-Mar-27 00:31N 51°10' E 003°47'0 0.0
2015-Mar-26 23:32N 51°10' E 003°47'0 0.0
2015-Mar-26 22:31N 51°10' E 003°47'0 0.0
2015-Mar-26 21:26N 51°10' E 003°47'0 0.0
2015-Mar-26 20:32N 51°10' E 003°47'0 0.0
2015-Mar-26 19:32N 51°10' E 003°47'0 0.0
2015-Mar-26 18:31N 51°10' E 003°47'0 0.0
2015-Mar-26 17:25N 51°10' E 003°47'0 0.0
2015-Mar-26 16:31N 51°10' E 003°47'0 0.0
2015-Mar-26 15:31N 51°10' E 003°47'0 0.0
2015-Mar-26 14:31N 51°10' E 003°47'0 0.0
2015-Mar-26 13:31N 51°10' E 003°47'0 0.0
2015-Mar-26 12:28N 51°10' E 003°47'1 1.3
2015-Mar-26 11:33N 51°11' E 003°48'8 7.6
2015-Mar-26 10:34N 51°18' E 003°50'2 2.1
2015-Mar-26 09:33N 51°20' E 003°49'7 7.0
2015-Mar-26 08:33N 51°25' E 003°40'3 3.2
2015-Mar-26 07:33N 51°25' E 003°35'0 0.1
2015-Mar-26 06:33N 51°25' E 003°35'0 0.1
2015-Mar-26 05:33N 51°25' E 003°36'0 0.0
2015-Mar-26 04:33N 51°25' E 003°36'1 1.0
2015-Mar-26 03:33N 51°25' E 003°34'1312.6
2015-Mar-26 02:33N 51°24' E 003°14'1110.9
2015-Mar-26 01:33N 51°22' E 002°57'10 9.7
2015-Mar-26 00:34N 51°21' E 002°41'9 9.1
2015-Mar-25 23:31N 51°21' E 002°26'8 8.7
2015-Mar-25 22:33N 51°17' E 002°15'9 9.4
2015-Mar-25 21:34N 51°12' E 002°03'10 9.5
2015-Mar-25 20:33N 51°06' E 001°51'9 8.9
2015-Mar-25 19:33N 51°03' E 002°04'1010.4
2015-Mar-25 18:33N 51°03' E 002°21'3 3.1
2015-Mar-25 17:31N 51°02' E 002°16'0 0.0
2015-Mar-25 16:28N 51°02' E 002°16'0 0.0
2015-Mar-25 15:28N 51°02' E 002°16'0 0.0
2015-Mar-25 14:32N 51°02' E 002°16'0 0.0
2015-Mar-25 13:31N 51°02' E 002°16'0 0.0
2015-Mar-25 12:28N 51°02' E 002°16'0 0.0
2015-Mar-25 11:25N 51°02' E 002°16'0 0.0
2015-Mar-25 10:31N 51°02' E 002°16'0 0.0
2015-Mar-25 09:25N 51°02' E 002°16'0 0.0
2015-Mar-25 08:31N 51°02' E 002°16'0 0.0
2015-Mar-25 07:31N 51°02' E 002°16'0 0.0
2015-Mar-25 06:28N 51°02' E 002°16'0 0.0
2015-Mar-25 05:28N 51°02' E 002°16'0 0.0
2015-Mar-25 04:31N 51°02' E 002°16'0 0.0
2015-Mar-25 03:31N 51°02' E 002°16'0 0.0
2015-Mar-25 02:31N 51°02' E 002°16'0 0.0
2015-Mar-25 01:28N 51°02' E 002°16'0 0.0
2015-Mar-25 00:28N 51°02' E 002°16'0 0.0
2015-Mar-24 23:25N 51°02' E 002°16'0 0.0
2015-Mar-24 22:28N 51°02' E 002°16'0 0.0
2015-Mar-24 21:31N 51°02' E 002°16'0 0.0
2015-Mar-24 20:31N 51°02' E 002°16'0 0.0
2015-Mar-24 19:31N 51°02' E 002°16'0 0.0
2015-Mar-24 18:31N 51°02' E 002°16'0 0.0
2015-Mar-24 17:31N 51°02' E 002°16'0 0.0
2015-Mar-24 16:31N 51°02' E 002°16'0 0.0
2015-Mar-24 15:32N 51°02' E 002°16'0 0.0
2015-Mar-24 14:31N 51°02' E 002°16'0 0.1
2015-Mar-24 13:33N 51°02' E 002°16'3 2.9
2015-Mar-24 12:30N 51°03' E 002°21'8 7.9
2015-Mar-24 11:27N 51°03' E 002°07'910.0
2015-Mar-24 10:33N 51°02' E 001°53'9 8.3
2015-Mar-24 09:30N 50°60' E 001°40'8 7.8
2015-Mar-24 08:32N 50°56' E 001°30'  

Dump ship's entire track history